Time;durP1;ratioP1;P1;durP2;ratioP2;P2;SDS_P1;SDS_P2;PMS_P1;PMS_P2;Temp;Humidity;BMP_temperature;BMP_pressure;BME280_temperature;BME280_humidity;BME280_pressure;Samples;Min_cycle;Max_cycle;Signal;HPM_P1;HPM_P2
2024/03/09 00:00:19;;;;;;;;;;;;;;;20.11;44.11;100936.16;2067561;28;6092;-67
2024/03/09 00:01:20;;;;;;;;;;;;;;;20.09;44.16;100926.06;2068215;28;2267;-68
2024/03/09 00:02:21;;;;;;;;;;;;;;;20.10;44.23;100923.94;2068776;28;2097;-68
2024/03/09 00:03:23;;;;;;;;;;;;;;;20.09;43.98;100923.19;2070151;28;1575;-68
2024/03/09 00:04:25;;;;;;;;;;;;;;;20.09;44.20;100922.44;2069706;28;2082;-68
2024/03/09 00:05:27;;;;;;;;;;;;;;;20.11;44.16;100918.91;2069303;28;2008;-67
2024/03/09 00:06:29;;;;;;;;;;;;;;;20.09;44.16;100917.44;2069024;28;1591;-68
2024/03/09 00:07:30;;;;;;;;;;;;;;;20.10;44.12;100915.31;2069725;28;2071;-68
2024/03/09 00:08:34;;;;;;;;;;;;;;;20.11;44.11;100913.91;2069357;28;1560;-68
2024/03/09 00:09:36;;;;;;;;;;;;;;;20.11;44.13;100918.91;2070089;28;1983;-67
2024/03/09 00:10:38;;;;;;;;;;;;;;;20.12;44.21;100914.66;2067120;28;2212;-68
2024/03/09 00:11:39;;;;;;;;;;;;;;;20.11;44.18;100907.41;2069347;28;2145;-68
2024/03/09 00:12:47;;;;;;;;;;;;;;;20.13;44.24;100913.25;2069371;28;2059;-68
2024/03/09 00:13:48;;;;;;;;;;;;;;;20.13;44.09;100916.13;2069963;28;1586;-68
2024/03/09 00:14:51;;;;;;;;;;;;;;;20.14;44.12;100917.63;2068863;28;2208;-68
2024/03/09 00:15:54;;;;;;;;;;;;;;;20.13;44.27;100916.13;2068649;28;2222;-68
2024/03/09 00:16:56;;;;;;;;;;;;;;;20.15;44.25;100907.63;2066956;28;2223;-68
2024/03/09 00:17:58;;;;;;;;;;;;;;;20.14;44.33;100906.16;2068149;28;1870;-68
2024/03/09 00:19:03;;;;;;;;;;;;;;;20.16;44.21;100917.72;2067956;28;1862;-68
2024/03/09 00:20:06;;;;;;;;;;;;;;;20.16;44.16;100914.84;2069490;28;1645;-68
2024/03/09 00:21:08;;;;;;;;;;;;;;;20.17;44.44;100910.59;2068320;28;2197;-68
2024/03/09 00:22:11;;;;;;;;;;;;;;;20.17;44.34;100911.31;2068203;28;2213;-68
2024/03/09 00:23:13;;;;;;;;;;;;;;;20.18;44.17;100912.06;2067880;28;1988;-68
2024/03/09 00:24:15;;;;;;;;;;;;;;;20.19;44.13;100907.81;2070526;28;2106;-68
2024/03/09 00:25:17;;;;;;;;;;;;;;;20.18;44.26;100907.06;2068600;28;2145;-68
2024/03/09 00:26:18;;;;;;;;;;;;;;;20.19;44.20;100897.06;2069438;28;2296;-68
2024/03/09 00:27:24;;;;;;;;;;;;;;;20.19;44.33;100905.69;2069187;28;2256;-68
2024/03/09 00:28:28;;;;;;;;;;;;;;;20.20;44.21;100897.78;2068606;28;1693;-67
2024/03/09 00:29:31;;;;;;;;;;;;;;;20.21;44.16;100902.16;2068943;28;2168;-68
2024/03/09 00:30:32;;;;;;;;;;;;;;;20.22;44.15;100900.75;2068129;28;6243;-68
2024/03/09 00:31:34;;;;;;;;;;;;;;;20.21;44.25;100902.16;2068561;28;2193;-68
2024/03/09 00:32:37;;;;;;;;;;;;;;;20.22;44.22;100898.63;2068337;28;1625;-68
2024/03/09 00:33:41;;;;;;;;;;;;;;;20.22;44.20;100895.00;2069676;28;1589;-68
2024/03/09 00:34:42;;;;;;;;;;;;;;;20.22;44.31;100895.75;2066848;28;2051;-68
2024/03/09 00:35:44;;;;;;;;;;;;;;;20.22;44.36;100895.00;2068727;28;2252;-67
2024/03/09 00:36:48;;;;;;;;;;;;;;;20.22;44.44;100897.88;2069532;28;2209;-68
2024/03/09 00:37:50;;;;;;;;;;;;;;;20.21;44.39;100894.28;2068768;28;2067;-68
2024/03/09 00:38:51;;;;;;;;;;;;;;;20.21;44.39;100891.41;2067542;28;1768;-68
2024/03/09 00:39:52;;;;;;;;;;;;;;;20.21;44.27;100893.53;2067796;28;1824;-65
2024/03/09 00:40:54;;;;;;;;;;;;;;;20.20;44.38;100897.78;2068281;28;2378;-68
2024/03/09 00:41:55;;;;;;;;;;;;;;;20.19;44.36;100891.31;2067920;28;2212;-68
2024/03/09 00:42:58;;;;;;;;;;;;;;;20.18;44.23;100892.69;2066827;28;1939;-68
2024/03/09 00:43:59;;;;;;;;;;;;;;;20.19;44.34;100890.56;2069894;28;2019;-68
2024/03/09 00:45:02;;;;;;;;;;;;;;;20.19;44.36;100890.56;2068944;28;2433;-68
2024/03/09 00:46:04;;;;;;;;;;;;;;;20.18;44.53;100884.06;2067798;28;2436;-68
2024/03/09 00:47:06;;;;;;;;;;;;;;;20.17;44.33;100881.84;2070148;28;2220;-68
2024/03/09 00:48:07;;;;;;;;;;;;;;;20.17;44.41;100876.09;2070723;28;1581;-68
2024/03/09 00:49:09;;;;;;;;;;;;;;;20.17;44.37;100876.81;2067305;28;2433;-67
2024/03/09 00:50:11;;;;;;;;;;;;;;;20.17;44.40;100878.97;2068132;28;1927;-68
2024/03/09 00:51:13;;;;;;;;;;;;;;;20.17;44.31;100873.94;2067898;28;2110;-68
2024/03/09 00:52:14;;;;;;;;;;;;;;;20.17;44.38;100881.84;2069386;28;2312;-68
2024/03/09 00:53:16;;;;;;;;;;;;;;;20.17;44.46;100870.34;2067868;28;2150;-68
2024/03/09 00:54:18;;;;;;;;;;;;;;;20.15;44.31;100873.84;2068982;28;2127;-67
2024/03/09 00:55:22;;;;;;;;;;;;;;;20.16;44.44;100872.47;2068382;28;2103;-68
2024/03/09 00:56:24;;;;;;;;;;;;;;;20.16;44.39;100871.72;2067959;28;1766;-68
2024/03/09 00:57:25;;;;;;;;;;;;;;;20.16;44.32;100871.72;2069107;28;1659;-68
2024/03/09 00:58:27;;;;;;;;;;;;;;;20.17;44.39;100870.34;2067843;28;1621;-68
2024/03/09 00:59:29;;;;;;;;;;;;;;;20.14;44.44;100872.38;2068517;28;2296;-68
2024/03/09 01:00:30;;;;;;;;;;;;;;;20.15;44.36;100867.38;2068005;28;6842;-68
2024/03/09 01:01:33;;;;;;;;;;;;;;;20.17;44.32;100867.47;2066364;28;2204;-67
2024/03/09 01:02:35;;;;;;;;;;;;;;;20.17;44.37;100876.09;2067652;28;2390;-68
2024/03/09 01:03:38;;;;;;;;;;;;;;;20.17;44.31;100878.97;2068386;28;1688;-68
2024/03/09 01:04:40;;;;;;;;;;;;;;;20.16;44.30;100865.97;2067669;28;2101;-68
2024/03/09 01:05:44;;;;;;;;;;;;;;;20.18;44.40;100866.06;2068777;28;1703;-68
2024/03/09 01:06:45;;;;;;;;;;;;;;;20.19;44.44;100873.31;2068591;28;1669;-67
2024/03/09 01:07:47;;;;;;;;;;;;;;;20.20;44.55;100874.78;2069811;28;1566;-68
2024/03/09 01:08:49;;;;;;;;;;;;;;;20.19;44.36;100867.56;2067175;28;2097;-68
2024/03/09 01:09:50;;;;;;;;;;;;;;;20.20;44.46;100869.03;2068615;28;2153;-69
2024/03/09 01:10:52;;;;;;;;;;;;;;;20.20;44.34;100871.91;2068473;28;2411;-69
2024/03/09 01:11:53;;;;;;;;;;;;;;;20.19;44.44;100861.81;2068718;28;2270;-68
2024/03/09 01:12:55;;;;;;;;;;;;;;;20.19;44.35;100879.81;2064157;28;2081;-68
2024/03/09 01:13:57;;;;;;;;;;;;;;;20.17;44.48;100865.31;2068003;28;2240;-68
2024/03/09 01:14:58;;;;;;;;;;;;;;;20.18;44.44;100866.06;2067514;28;2289;-68
2024/03/09 01:15:59;;;;;;;;;;;;;;;20.17;44.40;100871.06;2070110;28;2294;-68
2024/03/09 01:17:01;;;;;;;;;;;;;;;20.17;44.42;100868.19;2067765;28;2224;-68
2024/03/09 01:18:02;;;;;;;;;;;;;;;20.18;44.60;100860.31;2067515;28;1727;-68
2024/03/09 01:19:05;;;;;;;;;;;;;;;20.17;44.44;100864.59;2067901;28;1983;-67
2024/03/09 01:20:07;;;;;;;;;;;;;;;20.16;44.41;100863.09;2068633;28;2003;-67
2024/03/09 01:21:09;;;;;;;;;;;;;;;20.16;44.37;100858.09;2069569;28;1695;-67
2024/03/09 01:22:12;;;;;;;;;;;;;;;20.17;44.44;100858.84;2069936;28;1624;-68
2024/03/09 01:23:14;;;;;;;;;;;;;;;20.17;44.45;100853.09;2067459;28;2185;-68
2024/03/09 01:24:15;;;;;;;;;;;;;;;20.16;44.44;100851.59;2068490;28;2150;-68
2024/03/09 01:25:17;;;;;;;;;;;;;;;20.16;44.53;100857.34;2068470;28;2304;-69
2024/03/09 01:26:18;;;;;;;;;;;;;;;20.16;44.50;100854.47;2069188;28;1628;-68
2024/03/09 01:27:20;;;;;;;;;;;;;;;20.15;44.55;100853.00;2067308;28;1715;-68
2024/03/09 01:28:21;;;;;;;;;;;;;;;20.15;44.59;100850.13;2067943;28;1820;-68
2024/03/09 01:29:23;;;;;;;;;;;;;;;20.14;44.42;100849.38;2068464;28;1647;-68
2024/03/09 01:30:24;;;;;;;;;;;;;;;20.13;44.46;100844.28;2067191;28;6319;-68
2024/03/09 01:31:29;;;;;;;;;;;;;;;20.12;44.39;100846.41;2069905;28;2330;-67
2024/03/09 01:32:31;;;;;;;;;;;;;;;20.14;44.60;100854.41;2067623;28;2049;-68
2024/03/09 01:33:32;;;;;;;;;;;;;;;20.14;44.72;100845.78;2068127;28;1769;-67
2024/03/09 01:34:34;;;;;;;;;;;;;;;20.12;44.62;100846.41;2070198;28;2249;-68
2024/03/09 01:35:35;;;;;;;;;;;;;;;20.13;44.37;100852.88;2068424;28;2284;-68
2024/03/09 01:36:37;;;;;;;;;;;;;;;20.12;44.49;100849.28;2069498;28;1613;-68
2024/03/09 01:37:38;;;;;;;;;;;;;;;20.13;44.58;100850.03;2068008;28;1663;-68
2024/03/09 01:38:40;;;;;;;;;;;;;;;20.14;44.47;100854.41;2067614;28;2003;-68
2024/03/09 01:39:41;;;;;;;;;;;;;;;20.13;44.52;100847.88;2068934;28;2265;-68
2024/03/09 01:40:42;;;;;;;;;;;;;;;20.14;44.57;100840.75;2068149;28;1676;-68
2024/03/09 01:41:44;;;;;;;;;;;;;;;20.15;44.45;100850.13;2068235;28;1710;-68
2024/03/09 01:42:46;;;;;;;;;;;;;;;20.15;44.35;100845.09;2067255;28;1629;-68
2024/03/09 01:43:47;;;;;;;;;;;;;;;20.16;44.51;100845.84;2068846;28;2251;-67
2024/03/09 01:44:49;;;;;;;;;;;;;;;20.16;44.36;100845.84;2068006;28;2236;-68
2024/03/09 01:45:51;;;;;;;;;;;;;;;20.17;nan;100847.34;2067167;28;2200;-68
2024/03/09 01:46:53;;;;;;;;;;;;;;;20.15;44.33;100841.50;2069072;28;1719;-68
2024/03/09 01:47:55;;;;;;;;;;;;;;;20.18;44.50;100845.94;2067991;28;1782;-68
2024/03/09 01:48:57;;;;;;;;;;;;;;;20.18;44.50;100843.06;2070205;28;1894;-69
2024/03/09 01:49:58;;;;;;;;;;;;;;;20.18;44.43;100846.69;2068336;28;2083;-68
2024/03/09 01:51:00;;;;;;;;;;;;;;;20.18;44.55;100845.94;2068422;28;2087;-67
2024/03/09 01:52:01;;;;;;;;;;;;;;;20.18;44.45;100837.31;2068297;28;1859;-68
2024/03/09 01:53:03;;;;;;;;;;;;;;;20.18;44.64;100837.31;2066663;28;2076;-68
2024/03/09 01:54:10;;;;;;;;;;;;;;;20.18;44.57;100838.06;2069214;28;1607;-68
2024/03/09 01:55:12;;;;;;;;;;;;;;;20.18;44.42;100840.19;2067081;28;2216;-68
2024/03/09 01:56:14;;;;;;;;;;;;;;;20.18;44.42;100843.06;2068428;28;1640;-67
2024/03/09 01:57:15;;;;;;;;;;;;;;;20.18;44.58;100837.31;2068504;28;1751;-68
2024/03/09 01:58:20;;;;;;;;;;;;;;;20.16;44.54;100835.09;2067996;28;2031;-68
2024/03/09 01:59:22;;;;;;;;;;;;;;;20.17;44.37;100835.84;2069003;28;2155;-68
2024/03/09 02:00:23;;;;;;;;;;;;;;;20.16;44.39;100829.34;2064442;28;6288;-68
2024/03/09 02:01:28;;;;;;;;;;;;;;;20.17;44.43;100835.84;2067516;28;2165;-68
2024/03/09 02:02:30;;;;;;;;;;;;;;;20.17;44.42;100830.81;2066463;28;2269;-67
2024/03/09 02:03:31;;;;;;;;;;;;;;;20.16;44.37;100834.34;2066825;28;2070;-68
2024/03/09 02:04:34;;;;;;;;;;;;;;;20.17;44.49;100830.09;2068772;28;2326;-68
2024/03/09 02:05:36;;;;;;;;;;;;;;;20.15;44.58;100822.09;2067555;28;2185;-68
2024/03/09 02:06:40;;;;;;;;;;;;;;;20.15;44.49;100815.63;2069265;28;1582;-68
2024/03/09 02:07:44;;;;;;;;;;;;;;;20.15;44.43;100824.25;2069660;28;1618;-68
2024/03/09 02:08:46;;;;;;;;;;;;;;;20.16;44.48;100828.59;2067539;28;1937;-68
2024/03/09 02:09:51;;;;;;;;;;;;;;;20.14;44.47;100819.91;2066382;28;1977;-68
2024/03/09 02:10:52;;;;;;;;;;;;;;;20.14;44.51;100822.78;2067752;28;2129;-68
2024/03/09 02:11:57;;;;;;;;;;;;;;;20.13;44.64;100818.41;2068736;28;2396;-68
2024/03/09 02:12:58;;;;;;;;;;;;;;;20.13;44.64;100818.41;2066903;28;2358;-68
2024/03/09 02:13:59;;;;;;;;;;;;;;;20.12;44.66;100816.94;2067529;28;2303;-68
2024/03/09 02:15:01;;;;;;;;;;;;;;;20.12;44.46;100822.66;2067461;28;2351;-68
2024/03/09 02:16:02;;;;;;;;;;;;;;;20.11;44.56;100816.16;2068192;28;2228;-68
2024/03/09 02:17:10;;;;;;;;;;;;;;;20.11;44.54;100816.16;2068573;28;1657;-68
2024/03/09 02:18:12;;;;;;;;;;;;;;;20.11;44.67;100803.91;2067808;28;2131;-68
2024/03/09 02:19:13;;;;;;;;;;;;;;;20.11;44.59;100809.69;2067666;28;1649;-68
2024/03/09 02:20:16;;;;;;;;;;;;;;;20.11;44.59;100815.44;2068891;28;2460;-67
2024/03/09 02:21:18;;;;;;;;;;;;;;;20.11;44.75;100807.53;2068088;28;2208;-68
2024/03/09 02:22:21;;;;;;;;;;;;;;;20.13;44.49;100812.66;2067542;28;2201;-68
2024/03/09 02:23:28;;;;;;;;;;;;;;;20.13;44.47;100812.66;2069069;28;2320;-68
2024/03/09 02:24:34;;;;;;;;;;;;;;;20.14;44.44;100805.53;2069256;28;2228;-68
2024/03/09 02:25:36;;;;;;;;;;;;;;;20.14;44.40;100808.41;2068323;28;1646;-68
2024/03/09 02:26:38;;;;;;;;;;;;;;;20.14;44.36;100806.25;2066379;28;1881;-67
2024/03/09 02:27:42;;;;;;;;;;;;;;;20.14;44.44;100806.25;2065770;28;2153;-68
2024/03/09 02:28:50;;;;;;;;;;;;;;;20.14;44.37;100808.41;2066220;28;1677;-68
2024/03/09 02:29:52;;;;;;;;;;;;;;;20.16;44.44;100805.59;2065699;28;2253;-68
2024/03/09 02:30:54;;;;;;;;;;;;;;;20.16;44.44;100812.09;2066140;28;6242;-68
2024/03/09 02:31:56;;;;;;;;;;;;;;;20.15;44.47;100810.59;2066466;28;1973;-68
2024/03/09 02:32:57;;;;;;;;;;;;;;;20.17;44.59;100807.09;2068506;28;2123;-68
2024/03/09 02:34:01;;;;;;;;;;;;;;;20.16;44.39;100797.72;2069042;28;1726;-68
2024/03/09 02:35:03;;;;;;;;;;;;;;;20.17;44.43;100798.47;2069365;28;1674;-68
2024/03/09 02:36:04;;;;;;;;;;;;;;;20.15;44.58;100798.38;2067992;28;1617;-68
2024/03/09 02:37:06;;;;;;;;;;;;;;;20.16;44.62;100803.47;2067041;28;2103;-68
2024/03/09 02:38:09;;;;;;;;;;;;;;;20.16;44.47;100803.47;2067089;28;2136;-68
2024/03/09 02:39:10;;;;;;;;;;;;;;;20.17;44.47;100798.47;2067437;28;1656;-66
2024/03/09 02:40:12;;;;;;;;;;;;;;;20.16;44.64;100796.97;2067644;28;1636;-67
2024/03/09 02:41:13;;;;;;;;;;;;;;;20.15;44.38;100798.38;2066964;28;1731;-68
2024/03/09 02:42:15;;;;;;;;;;;;;;;20.15;44.43;100798.38;2066222;28;1900;-68
2024/03/09 02:43:18;;;;;;;;;;;;;;;20.14;44.65;100794.75;2068354;28;2189;-68
2024/03/09 02:44:21;;;;;;;;;;;;;;;20.14;44.68;100794.03;2067068;28;2222;-68
2024/03/09 02:45:23;;;;;;;;;;;;;;;20.13;44.70;100789.66;2067174;28;2181;-68
2024/03/09 02:46:25;;;;;;;;;;;;;;;20.13;44.72;100792.53;2067771;28;2013;-68
2024/03/09 02:47:26;;;;;;;;;;;;;;;20.12;44.52;100788.19;2067527;28;1661;-68
2024/03/09 02:48:29;;;;;;;;;;;;;;;20.12;44.64;100788.19;2067273;28;1711;-68
2024/03/09 02:49:30;;;;;;;;;;;;;;;20.12;44.56;100791.06;2067504;28;2301;-68
2024/03/09 02:50:32;;;;;;;;;;;;;;;20.13;44.67;100795.41;2067268;28;1652;-68
2024/03/09 02:51:33;;;;;;;;;;;;;;;20.12;44.52;100788.19;2067311;28;1914;-68
2024/03/09 02:52:35;;;;;;;;;;;;;;;20.11;44.58;100781.66;2067038;28;2005;-68
2024/03/09 02:53:37;;;;;;;;;;;;;;;20.11;44.59;100792.44;2068675;28;2165;-68
2024/03/09 02:54:38;;;;;;;;;;;;;;;20.10;44.55;100785.94;2067879;28;1585;-67
2024/03/09 02:55:39;;;;;;;;;;;;;;;20.09;44.59;100779.47;2067393;28;1928;-68
2024/03/09 02:56:41;;;;;;;;;;;;;;;20.10;44.65;100788.81;2067498;28;1628;-68
2024/03/09 02:57:42;;;;;;;;;;;;;;;20.08;44.61;100789.44;2066955;28;1944;-68
2024/03/09 02:58:44;;;;;;;;;;;;;;;20.09;44.52;100785.19;2068339;28;2138;-68
2024/03/09 02:59:45;;;;;;;;;;;;;;;20.09;44.73;100784.47;2067356;28;2373;-68
2024/03/09 03:00:46;;;;;;;;;;;;;;;20.09;44.54;100781.59;2065366;28;6235;-68
2024/03/09 03:01:48;;;;;;;;;;;;;;;20.10;44.60;100788.81;2066882;28;2153;-68
2024/03/09 03:04:11;;;;;;;;;;;;;;;20.11;44.60;100781.66;2067625;28;1660;-68
2024/03/09 03:05:13;;;;;;;;;;;;;;;20.12;44.56;100776.69;2067764;28;1704;-68
2024/03/09 03:06:18;;;;;;;;;;;;;;;20.11;44.51;100772.31;2066757;28;2072;-67
2024/03/09 03:07:19;;;;;;;;;;;;;;;20.13;44.55;100783.91;2067678;28;1645;-68
2024/03/09 03:08:21;;;;;;;;;;;;;;;20.12;44.48;100777.41;2067857;28;1967;-68
2024/03/09 03:09:22;;;;;;;;;;;;;;;20.11;44.54;100773.03;2067325;28;1947;-68
2024/03/09 03:10:24;;;;;;;;;;;;;;;20.13;44.48;100772.41;2066002;28;2132;-68
2024/03/09 03:11:25;;;;;;;;;;;;;;;20.13;44.41;100773.13;2067993;28;2049;-68
2024/03/09 03:12:27;;;;;;;;;;;;;;;20.12;44.46;100768.06;2066350;28;2167;-68
2024/03/09 03:13:29;;;;;;;;;;;;;;;20.13;44.42;100764.50;2067980;28;2009;-68
2024/03/09 03:14:30;;;;;;;;;;;;;;;20.13;44.49;100764.50;2067723;28;2165;-68
2024/03/09 03:15:31;;;;;;;;;;;;;;;20.14;44.46;100763.13;2066773;28;1632;-68
2024/03/09 03:16:35;;;;;;;;;;;;;;;20.14;44.50;100762.41;2067381;28;1640;-68
2024/03/09 03:17:37;;;;;;;;;;;;;;;20.14;44.63;100762.41;2065134;28;2211;-68
2024/03/09 03:18:38;;;;;;;;;;;;;;;20.13;44.58;100764.50;2068322;28;2436;-68
2024/03/09 03:19:40;;;;;;;;;;;;;;;20.14;44.45;100762.41;2066759;28;2014;-67
2024/03/09 03:20:41;;;;;;;;;;;;;;;20.13;44.50;100764.50;2066498;28;2081;-67
2024/03/09 03:21:43;;;;;;;;;;;;;;;20.13;44.57;100766.66;2066928;28;2126;-68
2024/03/09 03:22:46;;;;;;;;;;;;;;;20.12;44.58;100765.91;2066571;28;1802;-68
2024/03/09 03:23:47;;;;;;;;;;;;;;;20.11;44.52;100758.66;2067560;28;1624;-68
2024/03/09 03:24:49;;;;;;;;;;;;;;;20.12;44.58;100753.69;2067546;28;1577;-68
2024/03/09 03:25:50;;;;;;;;;;;;;;;20.11;44.74;100757.94;2068236;28;1589;-68
2024/03/09 03:26:52;;;;;;;;;;;;;;;20.11;44.51;100763.69;2068761;28;1661;-68
2024/03/09 03:27:53;;;;;;;;;;;;;;;20.09;44.52;100750.72;2068931;28;1790;-68
2024/03/09 03:28:54;;;;;;;;;;;;;;;20.11;44.49;100752.19;2067151;28;2153;-68
2024/03/09 03:29:56;;;;;;;;;;;;;;;20.10;44.62;100751.44;2067459;28;2145;-68
2024/03/09 03:30:59;;;;;;;;;;;;;;;20.09;44.68;100756.47;2066634;28;6257;-68
2024/03/09 03:32:01;;;;;;;;;;;;;;;20.08;44.62;100760.72;2068238;28;1977;-68
2024/03/09 03:33:03;;;;;;;;;;;;;;;20.08;44.60;100749.22;2066504;28;1693;-68
2024/03/09 03:34:05;;;;;;;;;;;;;;;20.07;44.65;100755.63;2067424;28;1649;-68
2024/03/09 03:35:07;;;;;;;;;;;;;;;20.06;44.53;100752.00;2067626;28;1901;-67
2024/03/09 03:36:09;;;;;;;;;;;;;;;20.06;44.70;100749.13;2067386;28;1926;-67
2024/03/09 03:37:10;;;;;;;;;;;;;;;20.06;44.55;100754.88;2068854;28;1624;-67
2024/03/09 03:38:12;;;;;;;;;;;;;;;20.06;44.62;100757.00;2065740;28;2081;-68
2024/03/09 03:39:13;;;;;;;;;;;;;;;20.05;44.61;100756.25;2067171;28;2181;-68
2024/03/09 03:40:15;;;;;;;;;;;;;;;20.06;44.76;100759.88;2067460;28;1952;-68
2024/03/09 03:41:18;;;;;;;;;;;;;;;20.05;44.77;100756.25;2066475;28;1729;-68
2024/03/09 03:42:21;;;;;;;;;;;;;;;20.05;44.70;100761.28;2068356;28;1594;-68
2024/03/09 03:43:23;;;;;;;;;;;;;;;20.05;44.69;100753.41;2068014;28;1838;-68
2024/03/09 03:44:29;;;;;;;;;;;;;;;20.05;44.74;100755.53;2067143;28;2071;-68
2024/03/09 03:45:31;;;;;;;;;;;;;;;20.04;44.69;100754.78;2068293;28;1875;-68
2024/03/09 03:46:32;;;;;;;;;;;;;;;20.04;44.70;100749.03;2069531;28;1685;-68
2024/03/09 03:47:33;;;;;;;;;;;;;;;20.05;44.50;100756.25;2066715;28;1881;-68
2024/03/09 03:48:35;;;;;;;;;;;;;;;20.05;44.50;100762.00;2067057;28;1973;-68
2024/03/09 03:49:37;;;;;;;;;;;;;;;20.06;44.56;100757.75;2066046;28;1958;-68
2024/03/09 03:50:38;;;;;;;;;;;;;;;20.08;44.60;100749.22;2068222;28;1901;-68
2024/03/09 03:51:39;;;;;;;;;;;;;;;20.09;44.60;100744.97;2067013;28;2182;-68
2024/03/09 03:52:41;;;;;;;;;;;;;;;20.09;44.54;100753.59;2068197;28;1577;-68
2024/03/09 03:53:43;;;;;;;;;;;;;;;20.10;44.57;100751.44;2067638;28;1616;-68
2024/03/09 03:54:44;;;;;;;;;;;;;;;20.11;44.60;100746.44;2068682;28;1648;-68
2024/03/09 03:55:45;;;;;;;;;;;;;;;20.10;44.67;100751.44;2065906;28;2142;-68
2024/03/09 03:56:47;;;;;;;;;;;;;;;20.12;44.64;100753.69;2067418;28;2170;-68
2024/03/09 03:57:50;;;;;;;;;;;;;;;20.12;44.51;100750.81;2066250;28;1596;-68
2024/03/09 03:58:53;;;;;;;;;;;;;;;20.12;44.55;100742.19;2067246;28;1930;-68
2024/03/09 03:59:55;;;;;;;;;;;;;;;20.12;44.48;100747.94;2066460;28;2357;-68
2024/03/09 04:00:57;;;;;;;;;;;;;;;20.13;44.44;100752.28;2066321;28;6072;-68
2024/03/09 04:01:59;;;;;;;;;;;;;;;20.13;44.40;100746.53;2068097;28;1726;-68
2024/03/09 04:03:00;;;;;;;;;;;;;;;20.15;44.38;100740.88;2067679;28;1825;-68
2024/03/09 04:04:02;;;;;;;;;;;;;;;20.14;44.58;100740.13;2066885;28;1683;-69
2024/03/09 04:05:03;;;;;;;;;;;;;;;20.15;44.57;100735.13;2066059;28;2063;-68
2024/03/09 04:06:07;;;;;;;;;;;;;;;20.16;44.60;100739.47;2068193;28;2219;-68
2024/03/09 04:07:09;;;;;;;;;;;;;;;20.16;44.47;100743.09;2068301;28;1613;-67
2024/03/09 04:08:11;;;;;;;;;;;;;;;20.17;44.59;100730.19;2068781;28;1664;-68
2024/03/09 04:09:15;;;;;;;;;;;;;;;20.17;44.45;100738.09;2069499;28;1659;-68
2024/03/09 04:10:18;;;;;;;;;;;;;;;20.18;44.70;100739.56;2068733;28;1939;-68
2024/03/09 04:11:20;;;;;;;;;;;;;;;20.17;44.49;100730.19;2067905;28;2074;-68
2024/03/09 04:12:21;;;;;;;;;;;;;;;20.17;44.42;100727.31;2068433;28;2205;-68
2024/03/09 04:13:23;;;;;;;;;;;;;;;20.19;44.36;100735.31;2069346;28;1660;-68
2024/03/09 04:14:27;;;;;;;;;;;;;;;20.19;44.36;100724.53;2067843;28;2117;-68
2024/03/09 04:15:28;;;;;;;;;;;;;;;20.19;44.62;100723.81;2068333;28;2361;-68
2024/03/09 04:16:29;;;;;;;;;;;;;;;20.20;44.40;100723.16;2068711;28;1601;-68
2024/03/09 04:17:31;;;;;;;;;;;;;;;20.21;44.59;100726.78;2068815;28;1738;-68
2024/03/09 04:18:33;;;;;;;;;;;;;;;20.21;44.52;100726.78;2069190;28;1640;-68
2024/03/09 04:19:36;;;;;;;;;;;;;;;20.21;44.36;100721.75;2069876;28;2211;-68
2024/03/09 04:20:39;;;;;;;;;;;;;;;20.21;44.44;100723.91;2067826;28;1878;-68
2024/03/09 04:21:41;;;;;;;;;;;;;;;20.20;44.45;100720.28;2068890;28;2236;-68
2024/03/09 04:22:45;;;;;;;;;;;;;;;20.20;44.56;100713.78;2068435;28;2105;-67
2024/03/09 04:23:47;;;;;;;;;;;;;;;20.20;44.63;100719.53;2068112;28;2114;-68
2024/03/09 04:24:48;;;;;;;;;;;;;;;20.20;44.48;100716.66;2068792;28;2059;-67
2024/03/09 04:25:50;;;;;;;;;;;;;;;20.19;44.43;100718.06;2067694;28;2186;-69
2024/03/09 04:26:52;;;;;;;;;;;;;;;20.20;44.43;100708.03;2068137;28;2145;-68
2024/03/09 04:27:55;;;;;;;;;;;;;;;20.19;44.46;100712.31;2068828;28;1573;-68
2024/03/09 04:28:58;;;;;;;;;;;;;;;20.19;44.60;100712.31;2068287;28;1855;-68
2024/03/09 04:29:59;;;;;;;;;;;;;;;20.19;44.59;100709.44;2067940;28;2276;-68
2024/03/09 04:31:00;;;;;;;;;;;;;;;20.19;44.36;100700.81;2068527;28;6374;-68
2024/03/09 04:32:02;;;;;;;;;;;;;;;20.19;44.62;100712.31;2068673;28;1906;-68
2024/03/09 04:33:08;;;;;;;;;;;;;;;20.19;44.26;100700.81;2068813;28;1677;-68
2024/03/09 04:34:11;;;;;;;;;;;;;;;20.19;44.57;100701.53;2068651;28;1770;-68
2024/03/09 04:35:13;;;;;;;;;;;;;;;20.19;44.65;100706.56;2069245;28;1746;-68
2024/03/09 04:36:14;;;;;;;;;;;;;;;20.19;44.60;100706.56;2069391;28;1813;-68
2024/03/09 04:37:25;;;;;;;;;;;;;;;20.20;44.39;100708.03;2070022;28;2075;-68
2024/03/09 04:38:26;;;;;;;;;;;;;;;20.19;44.50;100700.81;2069692;28;1667;-68
2024/03/09 04:39:29;;;;;;;;;;;;;;;20.20;44.45;100702.28;2066157;28;2177;-63
2024/03/09 04:40:31;;;;;;;;;;;;;;;20.19;44.51;100697.94;2069073;28;2149;-67
2024/03/09 04:41:32;;;;;;;;;;;;;;;20.19;44.62;100704.41;2067846;28;1697;-63
2024/03/09 04:42:33;;;;;;;;;;;;;;;20.20;44.43;100696.53;2069028;28;1679;-66
2024/03/09 04:43:37;;;;;;;;;;;;;;;20.20;44.46;100694.41;2068899;28;1744;-66
2024/03/09 04:44:41;;;;;;;;;;;;;;;20.22;44.45;100699.50;2066454;28;2046;-66
2024/03/09 04:45:43;;;;;;;;;;;;;;;20.20;44.59;100680.03;2068962;28;2180;-66
2024/03/09 04:46:44;;;;;;;;;;;;;;;20.22;44.49;100688.00;2068348;28;2185;-66
2024/03/09 04:47:46;;;;;;;;;;;;;;;20.22;44.48;100690.88;2068902;28;1833;-66
2024/03/09 04:48:47;;;;;;;;;;;;;;;20.22;44.40;100693.75;2069770;28;2093;-66
2024/03/09 04:49:49;;;;;;;;;;;;;;;20.23;44.42;100692.38;2069416;28;2464;-66
2024/03/09 04:50:50;;;;;;;;;;;;;;;20.24;44.53;100688.09;2068512;28;2137;-67
2024/03/09 04:51:52;;;;;;;;;;;;;;;20.23;44.45;100684.47;2069533;28;1928;-66
2024/03/09 04:52:53;;;;;;;;;;;;;;;20.24;44.51;100694.56;2070319;28;1985;-67
2024/03/09 04:53:55;;;;;;;;;;;;;;;20.24;44.35;100690.97;2068968;28;1629;-66
2024/03/09 04:54:56;;;;;;;;;;;;;;;20.25;44.44;100692.47;2069216;28;1900;-66
2024/03/09 04:55:57;;;;;;;;;;;;;;;20.24;44.46;100685.94;2068755;28;1673;-66
2024/03/09 04:57:04;;;;;;;;;;;;;;;20.25;44.50;100686.72;2070477;28;1581;-67
2024/03/09 04:58:13;;;;;;;;;;;;;;;20.25;44.52;100690.31;2068254;28;2025;-66
2024/03/09 04:59:16;;;;;;;;;;;;;;;20.25;44.47;100681.69;2068212;28;2155;-66
2024/03/09 05:00:17;;;;;;;;;;;;;;;20.25;44.41;100678.81;2069673;28;6234;-66
2024/03/09 05:01:19;;;;;;;;;;;;;;;20.24;44.44;100680.19;2067793;28;2177;-66
2024/03/09 05:02:20;;;;;;;;;;;;;;;20.24;44.45;100679.47;2070062;28;2047;-66
2024/03/09 05:03:21;;;;;;;;;;;;;;;20.24;44.37;100679.47;2069733;28;1620;-67
2024/03/09 05:04:23;;;;;;;;;;;;;;;20.23;44.49;100678.00;2067929;28;1901;-67
2024/03/09 05:05:31;;;;;;;;;;;;;;;20.22;44.52;100680.09;2068955;28;1763;-66
2024/03/09 05:06:34;;;;;;;;;;;;;;;20.24;44.68;100673.72;2068662;28;2126;-66
2024/03/09 05:07:35;;;;;;;;;;;;;;;20.21;44.64;100675.75;2067940;28;1545;-66
2024/03/09 05:08:36;;;;;;;;;;;;;;;20.22;44.51;100673.63;2068747;28;1940;-66
2024/03/09 05:09:38;;;;;;;;;;;;;;;20.22;44.59;100679.38;2068981;28;1952;-66
2024/03/09 05:10:40;;;;;;;;;;;;;;;20.22;44.43;100673.63;2068839;28;1651;-66
2024/03/09 05:11:41;;;;;;;;;;;;;;;20.22;44.49;100676.50;2069758;28;1570;-66
2024/03/09 05:12:56;;;;;;;;;;;;;;;20.23;44.49;100672.25;2066873;28;2008;-66
2024/03/09 05:13:57;;;;;;;;;;;;;;;20.23;44.48;100672.25;2068883;28;2086;-66
2024/03/09 05:14:59;;;;;;;;;;;;;;;20.22;44.43;100668.59;2068574;28;1713;-67
2024/03/09 05:16:00;;;;;;;;;;;;;;;20.21;44.36;100670.00;2067504;28;2400;-66
2024/03/09 05:17:02;;;;;;;;;;;;;;;20.23;44.45;100672.25;2068196;28;2107;-66
2024/03/09 05:18:09;;;;;;;;;;;;;;;20.22;44.53;100673.63;2066717;28;2019;-66
2024/03/09 05:19:11;;;;;;;;;;;;;;;20.22;44.51;100671.47;2068122;28;2023;-66
2024/03/09 05:20:20;;;;;;;;;;;;;;;20.22;44.56;100667.88;2068323;28;1980;-66
2024/03/09 05:21:22;;;;;;;;;;;;;;;20.24;44.58;100667.97;2068245;28;1720;-66
2024/03/09 05:22:24;;;;;;;;;;;;;;;20.24;44.50;100668.69;2068220;28;1571;-66
2024/03/09 05:23:25;;;;;;;;;;;;;;;20.24;44.45;100673.72;2068299;28;1956;-66
2024/03/09 05:24:31;;;;;;;;;;;;;;;20.25;44.45;100672.34;2067515;28;1701;-66
2024/03/09 05:25:33;;;;;;;;;;;;;;;20.25;44.59;100666.59;2068390;28;1620;-66